createdAt,value
2022-10-31T00:04:53.441Z,12.97
2022-10-31T00:09:58.994Z,11.87
2022-10-31T00:15:04.541Z,11.53
2022-10-31T00:20:10.987Z,12.67
2022-10-31T00:25:16.579Z,11.60
2022-10-31T00:30:22.109Z,13.33
2022-10-31T00:35:27.792Z,14.27
2022-10-31T00:40:33.263Z,16.67
2022-10-31T00:45:39.218Z,16.10
2022-10-31T00:50:44.836Z,12.10
2022-10-31T00:55:50.914Z,14.20
2022-10-31T01:00:56.737Z,15.43
2022-10-31T01:06:05.460Z,13.20
2022-10-31T01:11:17.134Z,16.13
2022-10-31T01:16:25.311Z,14.03
2022-10-31T01:21:31.863Z,13.10
2022-10-31T01:26:37.523Z,11.93
2022-10-31T01:31:43.111Z,16.07
2022-10-31T01:36:50.780Z,14.23
2022-10-31T01:41:56.630Z,13.93
2022-10-31T01:47:05.146Z,16.83
2022-10-31T01:52:49.387Z,14.93
2022-10-31T01:57:58.626Z,14.77
2022-10-31T02:03:04.839Z,12.93
2022-10-31T02:08:25.406Z,13.03
2022-10-31T02:13:32.205Z,13.07
2022-10-31T02:18:38.009Z,17.03
2022-10-31T02:24:09.277Z,15.47
2022-10-31T02:29:29.443Z,11.70
2022-10-31T02:34:38.420Z,15.23
2022-10-31T02:40:06.503Z,14.03
2022-10-31T02:45:25.401Z,11.07
2022-10-31T02:50:36.948Z,14.50
2022-10-31T02:55:45.382Z,15.07
2022-10-31T03:00:57.149Z,17.60
2022-10-31T03:06:11.532Z,15.37
2022-10-31T03:11:19.558Z,16.03
2022-10-31T03:16:28.058Z,17.07
2022-10-31T03:21:36.579Z,14.43
2022-10-31T03:26:45.095Z,15.37
2022-10-31T03:31:53.620Z,16.67
2022-10-31T03:37:02.720Z,15.13
2022-10-31T03:42:11.861Z,17.93
2022-10-31T03:47:17.841Z,13.80
2022-10-31T03:52:31.131Z,14.50
2022-10-31T03:57:39.836Z,15.37
2022-10-31T04:02:48.946Z,16.73
2022-10-31T04:07:57.693Z,15.57
2022-10-31T04:13:06.286Z,14.53
2022-10-31T04:18:13.698Z,15.07
2022-10-31T04:23:27.335Z,16.97
2022-10-31T04:28:34.924Z,16.97
2022-10-31T04:33:40.916Z,12.83
2022-10-31T04:38:46.380Z,15.77
2022-10-31T04:43:53.597Z,13.10
2022-10-31T04:48:59.194Z,10.27
2022-10-31T04:54:05.088Z,11.23
2022-10-31T04:59:12.419Z,11.33
2022-10-31T05:04:22.441Z,9.80
2022-10-31T05:09:28.292Z,11.17
2022-10-31T05:14:33.766Z,12.53
2022-10-31T05:19:57.449Z,12.60
2022-10-31T05:25:05.089Z,13.53
2022-10-31T05:30:14.008Z,11.47
2022-10-31T05:35:22.922Z,13.10
2022-10-31T05:40:35.931Z,14.53
2022-10-31T05:45:41.490Z,13.27
2022-10-31T05:50:50.746Z,15.40
2022-10-31T05:55:56.285Z,15.70
2022-10-31T06:01:01.825Z,19.03
2022-10-31T06:06:08.945Z,21.43
2022-10-31T06:11:16.441Z,18.67
2022-10-31T06:16:42.229Z,17.13
2022-10-31T06:21:56.149Z,20.43
2022-10-31T06:27:01.790Z,16.03
2022-10-31T06:32:07.673Z,14.13
2022-10-31T06:37:15.003Z,15.57
2022-10-31T06:42:22.238Z,15.17
2022-10-31T06:47:27.803Z,12.77
2022-10-31T06:52:37.856Z,17.00
2022-10-31T06:57:43.334Z,17.97
2022-10-31T07:02:59.361Z,19.77
2022-10-31T07:08:07.858Z,22.03
2022-10-31T07:13:16.016Z,17.00
2022-10-31T07:18:23.848Z,17.80
2022-10-31T07:23:30.806Z,19.80
2022-10-31T07:28:40.845Z,24.80
2022-10-31T07:33:46.788Z,23.10
2022-10-31T07:39:00.115Z,21.50
2022-10-31T07:44:06.217Z,24.30
2022-10-31T07:49:28.658Z,22.00
2022-10-31T07:54:51.919Z,19.93
2022-10-31T07:59:59.092Z,20.17
2022-10-31T08:05:05.869Z,19.47
2022-10-31T08:10:31.056Z,22.27
2022-10-31T08:15:39.424Z,18.33
2022-10-31T08:20:46.710Z,15.17
2022-10-31T08:25:52.290Z,19.47
2022-10-31T08:31:00.012Z,17.70
2022-10-31T08:36:23.322Z,18.43
2022-10-31T08:41:42.694Z,20.20
2022-10-31T08:46:50.929Z,19.00
2022-10-31T08:51:56.549Z,19.13
2022-10-31T08:57:03.642Z,23.77
2022-10-31T09:02:10.815Z,25.30
2022-10-31T09:07:21.255Z,17.27
2022-10-31T09:12:25.140Z,16.27
2022-10-31T09:17:50.073Z,14.63
2022-10-31T09:23:02.054Z,15.93
2022-10-31T09:28:11.067Z,14.97
2022-10-31T09:33:17.273Z,15.70
2022-10-31T09:38:24.747Z,17.40
2022-10-31T09:43:53.354Z,19.33
2022-10-31T09:49:28.032Z,15.80
2022-10-31T09:54:51.288Z,15.13
2022-10-31T09:59:58.302Z,16.00
2022-10-31T10:05:06.469Z,19.67
2022-10-31T10:10:22.275Z,14.77
2022-10-31T10:16:06.723Z,16.33
2022-10-31T10:21:27.017Z,15.50
2022-10-31T10:26:41.874Z,12.87
2022-10-31T10:31:50.302Z,13.30
2022-10-31T10:37:04.509Z,20.17
2022-10-31T10:42:35.770Z,13.13
2022-10-31T10:47:46.720Z,16.80
2022-10-31T10:53:01.056Z,17.37
2022-10-31T10:58:09.748Z,13.47
2022-10-31T11:03:16.987Z,17.00
2022-10-31T11:08:34.194Z,12.40
2022-10-31T11:13:42.971Z,16.97
2022-10-31T11:18:49.991Z,15.17
2022-10-31T11:24:12.738Z,14.50
2022-10-31T11:29:26.185Z,13.13
2022-10-31T11:34:34.627Z,13.30
2022-10-31T11:39:43.079Z,15.50
2022-10-31T11:44:48.743Z,12.33
2022-10-31T11:49:54.836Z,13.47
2022-10-31T11:55:03.157Z,12.80
2022-10-31T12:05:34.732Z,12.97
2022-10-31T12:10:43.168Z,13.67
2022-10-31T12:15:51.670Z,13.63
2022-10-31T12:21:12.163Z,14.30
2022-10-31T12:26:29.318Z,17.23
2022-10-31T12:31:55.410Z,15.70
2022-10-31T12:37:12.359Z,16.77
2022-10-31T12:42:49.731Z,19.10
2022-10-31T12:48:00.895Z,20.87
2022-10-31T12:58:30.772Z,24.57
2022-10-31T13:03:48.271Z,23.90
2022-10-31T13:09:02.523Z,26.93
2022-10-31T13:14:26.087Z,26.43
2022-10-31T13:19:37.305Z,32.83
2022-10-31T13:24:45.747Z,38.17
2022-10-31T13:30:09.473Z,40.73
2022-10-31T13:35:20.661Z,42.37
2022-10-31T13:40:47.172Z,40.87
2022-10-31T13:45:55.738Z,60.27
2022-10-31T13:51:08.241Z,55.47
2022-10-31T13:56:19.152Z,84.10
2022-10-31T14:01:25.304Z,130.83
2022-10-31T14:06:48.985Z,217.50
2022-10-31T14:11:55.450Z,243.93
2022-10-31T14:17:01.628Z,270.97
2022-10-31T14:22:08.641Z,184.97
2022-10-31T14:27:32.112Z,130.63
2022-10-31T14:32:38.607Z,106.70
2022-10-31T14:38:09.559Z,108.20
2022-10-31T14:43:47.001Z,93.47
2022-10-31T14:49:04.317Z,103.37
2022-10-31T14:54:12.820Z,102.20
2022-10-31T14:59:21.014Z,97.10
2022-10-31T15:04:33.663Z,86.73
2022-10-31T15:09:41.263Z,72.03
2022-10-31T15:14:46.910Z,67.30
2022-10-31T15:19:53.628Z,72.80
2022-10-31T15:24:59.467Z,70.83
2022-10-31T15:30:07.725Z,71.80
2022-10-31T15:35:14.718Z,63.30
2022-10-31T15:40:22.241Z,62.17
2022-10-31T15:45:29.697Z,68.37
2022-10-31T15:50:44.956Z,89.23
2022-10-31T15:55:59.760Z,71.73
2022-10-31T16:01:07.989Z,65.27
2022-10-31T16:06:22.195Z,84.43
2022-10-31T16:11:30.659Z,72.43
2022-10-31T16:16:38.629Z,55.63
2022-10-31T16:21:44.260Z,54.53
2022-10-31T16:26:52.396Z,48.00
2022-10-31T16:31:58.039Z,31.20
2022-10-31T16:37:04.745Z,28.43
2022-10-31T16:42:11.452Z,23.33
2022-10-31T16:47:18.306Z,22.17
2022-10-31T16:52:23.704Z,24.57
2022-10-31T16:57:31.766Z,23.20
2022-10-31T17:02:37.683Z,29.87
2022-10-31T17:07:44.176Z,23.43
2022-10-31T17:12:51.685Z,26.47
2022-10-31T17:17:57.848Z,31.13
2022-10-31T17:23:04.032Z,29.43
2022-10-31T17:28:13.723Z,28.10
2022-10-31T17:33:19.353Z,36.50
2022-10-31T17:38:24.884Z,33.23
2022-10-31T17:43:30.437Z,29.63
2022-10-31T17:48:37.761Z,30.33
2022-10-31T17:53:43.255Z,33.53
2022-10-31T17:58:49.217Z,29.77
2022-10-31T18:03:55.821Z,27.23
2022-10-31T18:09:05.901Z,29.37
2022-10-31T18:14:11.851Z,25.60
2022-10-31T18:19:18.080Z,19.27
2022-10-31T18:24:23.895Z,26.90
2022-10-31T18:29:30.490Z,29.43
2022-10-31T18:34:36.478Z,22.10
2022-10-31T18:39:41.961Z,25.37
2022-10-31T18:44:47.442Z,18.50
2022-10-31T18:49:52.966Z,16.63
2022-10-31T18:54:58.565Z,22.43
2022-10-31T19:00:08.069Z,22.70
2022-10-31T19:05:13.621Z,15.77
2022-10-31T19:10:19.461Z,18.77
2022-10-31T19:15:26.283Z,19.50
2022-10-31T19:20:32.436Z,21.30
2022-10-31T19:25:38.414Z,30.30
2022-10-31T19:30:43.911Z,28.47
2022-10-31T19:35:49.387Z,40.57
2022-10-31T19:41:00.057Z,24.90
2022-10-31T19:46:07.191Z,22.13
2022-10-31T19:51:16.640Z,23.57
2022-10-31T19:56:25.066Z,22.80
2022-10-31T20:01:31.222Z,20.73
2022-10-31T20:06:40.075Z,22.53
2022-10-31T20:11:46.915Z,18.30
2022-10-31T20:16:52.377Z,27.23
2022-10-31T20:21:57.833Z,26.67
2022-10-31T20:27:04.872Z,22.50
2022-10-31T20:32:10.577Z,20.50
2022-10-31T20:37:16.257Z,22.17
2022-10-31T20:42:22.079Z,21.73
2022-10-31T20:47:27.644Z,22.70
2022-10-31T20:52:33.298Z,26.00
2022-10-31T20:57:39.186Z,28.60
2022-10-31T21:02:45.005Z,28.80
2022-10-31T21:12:57.111Z,29.13
2022-10-31T21:18:02.603Z,26.33
2022-10-31T21:23:08.207Z,29.93
2022-10-31T21:28:14.177Z,33.07
2022-10-31T21:33:19.833Z,24.70
2022-10-31T21:38:25.378Z,28.93
2022-10-31T21:43:31.742Z,29.80
2022-10-31T21:48:44.630Z,32.37
2022-10-31T21:54:08.426Z,25.47
2022-10-31T21:59:14.581Z,22.17
2022-10-31T22:04:20.477Z,34.10
2022-10-31T22:09:26.010Z,31.63
2022-10-31T22:14:31.781Z,27.97
2022-10-31T22:19:37.681Z,40.07
2022-10-31T22:24:43.153Z,35.13
2022-10-31T22:29:55.540Z,37.43
2022-10-31T22:34:57.751Z,36.63
2022-10-31T22:40:03.666Z,34.33
2022-10-31T22:45:10.433Z,40.00
2022-10-31T22:50:15.971Z,47.90
2022-10-31T22:55:21.425Z,38.73
2022-10-31T23:00:26.987Z,38.87
2022-10-31T23:05:32.543Z,39.90
2022-10-31T23:10:39.646Z,34.50
2022-10-31T23:15:45.350Z,37.33
2022-10-31T23:20:55.047Z,36.17
2022-10-31T23:26:18.558Z,43.97
2022-10-31T23:31:24.170Z,39.07
2022-10-31T23:36:29.561Z,41.77
2022-10-31T23:41:35.020Z,37.60
2022-10-31T23:46:40.487Z,38.60
2022-10-31T23:51:45.950Z,34.77
2022-10-31T23:56:51.416Z,28.33
